Ipatinga, Brazil
Current Conditions -  °F | °C
As of 7:00 PM on Wednesday 22 Oct 2014 (Local Time) from SBIP Reporting Station
Overcast Overcast  
Wind Chill: 77°   Ceiling: 7000
Heat Index: 79°   Visibility: 6mi
Dew Point: 63°   Wind: 3mph
Humidity: 61%   Direction: 20°NNE
Pressure: 30.06"   Gusts: NA
Location:  19.48°S, 42.52°W
Report Text: SBIP 222100Z 02003KT 9999 SCT040 OVC070 25/17 Q1018
Loading
Personal Weather Stations






























Interactive Weather Map
Tropical Storm Tracking
New forecast layout! Learn more

10-Day Weather Forecast

Advertisements
Track Severe Weather on mobile